Time;durP1;ratioP1;P1;durP2;ratioP2;P2;SDS_P1;SDS_P2;PMS_P1;PMS_P2;Temp;Humidity;BMP_temperature;BMP_pressure;BME280_temperature;BME280_humidity;BME280_pressure;Samples;Min_cycle;Max_cycle;Signal;HPM_P1;HPM_P2
2023/03/24 00:01:05;;;;;;;;;;;20.30;37.30;;;;;;1548078;77;746;-58
2023/03/24 00:03:07;;;;;;;;;;;20.30;37.30;;;;;;1546990;77;1102;-58
2023/03/24 00:05:10;;;;;;;;;;;20.30;37.30;;;;;;1548869;77;743;-60
2023/03/24 00:07:13;;;;;;;;;;;20.30;37.30;;;;;;1543189;77;747;-58
2023/03/24 00:09:15;;;;;;;;;;;20.30;37.30;;;;;;1537274;77;1552;-58
2023/03/24 00:11:19;;;;;;;;;;;20.30;37.30;;;;;;1543232;77;760;-58
2023/03/24 00:13:21;;;;;;;;;;;20.20;37.30;;;;;;1532022;77;1658;-59
2023/03/24 00:15:23;;;;;;;;;;;20.20;37.30;;;;;;1530807;77;1934;-58
2023/03/24 00:17:28;;;;;;;;;;;20.30;37.50;;;;;;1537904;77;804;-57
2023/03/24 00:19:28;;;;;;;;;;;20.30;37.50;;;;;;1533245;77;1674;-57
2023/03/24 00:21:31;;;;;;;;;;;20.30;37.40;;;;;;1535176;77;763;-58
2023/03/24 00:23:33;;;;;;;;;;;20.20;37.30;;;;;;1541005;77;1461;-58
2023/03/24 00:25:39;;;;;;;;;;;20.20;37.30;;;;;;1528491;77;735;-59
2023/03/24 00:27:43;;;;;;;;;;;20.30;37.40;;;;;;1531708;77;714;-58
2023/03/24 00:29:44;;;;;;;;;;;20.30;37.40;;;;;;1548268;77;1674;-59
2023/03/24 00:31:46;;;;;;;;;;;20.30;37.40;;;;;;1548538;77;739;-58
2023/03/24 00:33:49;;;;;;;;;;;20.20;37.30;;;;;;1534080;77;1126;-58
2023/03/24 00:35:52;;;;;;;;;;;20.30;37.40;;;;;;1542406;77;1925;-59
2023/03/24 00:37:54;;;;;;;;;;;20.30;37.40;;;;;;1548027;77;1603;-58
2023/03/24 00:39:58;;;;;;;;;;;20.30;37.40;;;;;;1543621;77;660;-59
2023/03/24 00:42:02;;;;;;;;;;;20.30;37.40;;;;;;1548155;77;1122;-59
2023/03/24 00:44:05;;;;;;;;;;;20.30;37.40;;;;;;1539009;77;712;-58
2023/03/24 00:46:09;;;;;;;;;;;20.30;37.40;;;;;;1546799;77;677;-58
2023/03/24 00:48:13;;;;;;;;;;;20.30;37.40;;;;;;1530148;77;814;-60
2023/03/24 00:50:17;;;;;;;;;;;20.30;37.40;;;;;;1546278;77;1732;-59
2023/03/24 00:52:20;;;;;;;;;;;20.30;37.40;;;;;;1543849;77;1659;-60
2023/03/24 00:54:26;;;;;;;;;;;20.30;37.40;;;;;;1537733;77;735;-59
2023/03/24 00:56:26;;;;;;;;;;;20.30;37.50;;;;;;1524702;77;1925;-57
2023/03/24 00:58:28;;;;;;;;;;;20.30;37.50;;;;;;1541965;77;742;-58
2023/03/24 01:00:31;;;;;;;;;;;20.30;37.50;;;;;;1537084;77;720;-59
2023/03/24 01:02:33;;;;;;;;;;;20.30;37.40;;;;;;1542651;77;1151;-58
2023/03/24 01:04:35;;;;;;;;;;;20.30;37.40;;;;;;1533931;77;1576;-58
2023/03/24 01:06:37;;;;;;;;;;;20.20;37.30;;;;;;1542352;77;774;-59
2023/03/24 01:08:38;;;;;;;;;;;20.30;37.40;;;;;;1532147;77;683;-58
2023/03/24 01:10:51;;;;;;;;;;;20.30;37.40;;;;;;1542431;77;585;-59
2023/03/24 01:12:44;;;;;;;;;;;20.30;37.40;;;;;;1525406;77;1729;-58
2023/03/24 01:14:46;;;;;;;;;;;20.30;37.40;;;;;;1534515;77;823;-58
2023/03/24 01:16:48;;;;;;;;;;;20.30;37.40;;;;;;1536952;77;1955;-58
2023/03/24 01:18:51;;;;;;;;;;;20.30;37.40;;;;;;1542627;77;1589;-58
2023/03/24 01:20:53;;;;;;;;;;;20.30;37.40;;;;;;1536709;77;713;-58
2023/03/24 01:22:55;;;;;;;;;;;20.30;37.40;;;;;;1530257;77;1134;-58
2023/03/24 01:24:59;;;;;;;;;;;20.30;37.40;;;;;;1534797;77;710;-59
2023/03/24 01:27:00;;;;;;;;;;;20.30;37.40;;;;;;1528167;77;1647;-59
2023/03/24 01:29:02;;;;;;;;;;;20.30;37.40;;;;;;1527921;77;878;-58
2023/03/24 01:31:04;;;;;;;;;;;20.30;37.40;;;;;;1535581;77;693;-58
2023/03/24 01:33:07;;;;;;;;;;;20.30;37.40;;;;;;1539440;77;1493;-58
2023/03/24 01:35:08;;;;;;;;;;;20.20;37.30;;;;;;1530898;77;762;-58
2023/03/24 01:37:10;;;;;;;;;;;20.30;37.40;;;;;;1547981;77;1933;-59
2023/03/24 01:39:12;;;;;;;;;;;20.20;37.30;;;;;;1539848;77;793;-58
2023/03/24 01:41:14;;;;;;;;;;;20.30;37.50;;;;;;1541420;77;782;-61
2023/03/24 01:43:18;;;;;;;;;;;20.30;37.50;;;;;;1548035;77;1145;-59
2023/03/24 01:45:40;;;;;;;;;;;20.30;37.50;;;;;;1536049;77;891;-58
2023/03/24 01:47:42;;;;;;;;;;;20.20;37.40;;;;;;1541440;77;1577;-59
2023/03/24 01:49:48;;;;;;;;;;;20.20;37.40;;;;;;1545377;77;712;-58
2023/03/24 01:51:52;;;;;;;;;;;20.20;37.50;;;;;;1545350;77;717;-59
2023/03/24 01:53:55;;;;;;;;;;;20.20;37.50;;;;;;1539489;77;1135;-58
2023/03/24 01:55:57;;;;;;;;;;;20.20;37.50;;;;;;1531360;77;1941;-59
2023/03/24 01:58:00;;;;;;;;;;;20.30;37.60;;;;;;1536618;75;686;-59
2023/03/24 02:00:04;;;;;;;;;;;20.20;37.50;;;;;;1527322;77;795;-59
2023/03/24 02:02:06;;;;;;;;;;;20.20;37.50;;;;;;1541893;77;1354;-58
2023/03/24 02:04:09;;;;;;;;;;;20.20;37.60;;;;;;1533850;77;779;-60
2023/03/24 02:06:12;;;;;;;;;;;20.20;37.50;;;;;;1529758;77;808;-59
2023/03/24 02:08:24;;;;;;;;;;;20.20;37.50;;;;;;1542937;77;775;-58
2023/03/24 02:10:26;;;;;;;;;;;20.20;37.60;;;;;;1539505;77;2160;-59
2023/03/24 02:12:29;;;;;;;;;;;20.10;37.50;;;;;;1530373;77;1179;-58
2023/03/24 02:14:31;;;;;;;;;;;20.20;37.60;;;;;;1541239;77;749;-59
2023/03/24 02:16:49;;;;;;;;;;;20.20;37.60;;;;;;1541366;77;1899;-59
2023/03/24 02:18:55;;;;;;;;;;;20.20;37.60;;;;;;1529630;77;2135;-59
2023/03/24 02:21:05;;;;;;;;;;;20.20;37.50;;;;;;1529555;77;2235;-59
2023/03/24 02:23:25;;;;;;;;;;;20.20;37.50;;;;;;1538654;75;1768;-58
2023/03/24 02:25:32;;;;;;;;;;;20.20;37.50;;;;;;1536695;77;716;-58
2023/03/24 02:27:52;;;;;;;;;;;20.20;37.60;;;;;;1544674;77;880;-58
2023/03/24 02:29:55;;;;;;;;;;;20.20;37.60;;;;;;1539832;77;1475;-59
2023/03/24 02:31:59;;;;;;;;;;;20.20;37.60;;;;;;1530149;77;1171;-59
2023/03/24 02:34:08;;;;;;;;;;;20.10;37.60;;;;;;1541609;77;823;-58
2023/03/24 02:36:27;;;;;;;;;;;20.20;37.60;;;;;;1533409;77;1914;-58
2023/03/24 02:38:37;;;;;;;;;;;20.20;37.60;;;;;;1543344;77;749;-59
2023/03/24 02:40:58;;;;;;;;;;;20.20;37.60;;;;;;1533888;77;727;-58
2023/03/24 02:43:20;;;;;;;;;;;20.20;37.60;;;;;;1537249;77;2458;-57
2023/03/24 02:45:26;;;;;;;;;;;20.20;37.60;;;;;;1535572;77;661;-59
2023/03/24 02:47:30;;;;;;;;;;;20.10;37.60;;;;;;1536672;77;625;-57
2023/03/24 02:49:34;;;;;;;;;;;20.20;37.70;;;;;;1546855;77;653;-59
2023/03/24 02:51:52;;;;;;;;;;;20.20;37.70;;;;;;1545480;77;756;-60
2023/03/24 02:53:55;;;;;;;;;;;20.20;37.70;;;;;;1535834;77;1128;-61
2023/03/24 02:56:08;;;;;;;;;;;20.20;37.60;;;;;;1527096;77;772;-59
2023/03/24 02:58:12;;;;;;;;;;;20.20;37.70;;;;;;1538299;77;1367;-59
2023/03/24 03:00:18;;;;;;;;;;;20.20;37.70;;;;;;1538412;77;1866;-58
2023/03/24 03:02:22;;;;;;;;;;;20.20;37.70;;;;;;1539121;77;1175;-58
2023/03/24 03:04:28;;;;;;;;;;;20.20;37.70;;;;;;1529617;77;760;-58
2023/03/24 03:06:32;;;;;;;;;;;20.20;37.70;;;;;;1529549;77;1752;-58
2023/03/24 03:08:34;;;;;;;;;;;20.20;37.60;;;;;;1536469;77;732;-59
2023/03/24 03:10:37;;;;;;;;;;;20.20;37.60;;;;;;1544586;77;728;-57
2023/03/24 03:12:39;;;;;;;;;;;20.10;37.50;;;;;;1538366;77;1597;-59
2023/03/24 03:14:54;;;;;;;;;;;20.30;37.60;;;;;;1543536;77;731;-59
2023/03/24 03:16:58;;;;;;;;;;;20.30;37.60;;;;;;1526399;77;1932;-58
2023/03/24 03:19:02;;;;;;;;;;;20.30;37.60;;;;;;1537158;77;641;-59
2023/03/24 03:21:08;;;;;;;;;;;20.30;37.60;;;;;;1542994;77;710;-57
2023/03/24 03:23:11;;;;;;;;;;;20.30;37.60;;;;;;1541339;77;1131;-58
2023/03/24 03:25:13;;;;;;;;;;;20.30;37.60;;;;;;1546401;77;1584;-60
2023/03/24 03:27:17;;;;;;;;;;;20.30;37.60;;;;;;1534256;77;769;-58
2023/03/24 03:29:20;;;;;;;;;;;20.30;37.60;;;;;;1538651;77;695;-59
2023/03/24 03:31:28;;;;;;;;;;;20.30;37.50;;;;;;1534802;77;593;-58
2023/03/24 03:33:31;;;;;;;;;;;20.30;37.60;;;;;;1534739;77;1853;-59
2023/03/24 03:35:35;;;;;;;;;;;20.30;37.50;;;;;;1541815;77;734;-58
2023/03/24 03:37:47;;;;;;;;;;;20.70;37.80;;;;;;1535195;77;1917;-58
2023/03/24 03:39:51;;;;;;;;;;;20.30;37.60;;;;;;1531541;77;1880;-60
2023/03/24 03:41:53;;;;;;;;;;;20.30;37.60;;;;;;1548515;77;733;-60
2023/03/24 03:43:55;;;;;;;;;;;20.30;37.60;;;;;;1546686;77;1118;-60
2023/03/24 03:45:57;;;;;;;;;;;20.30;37.60;;;;;;1539256;77;813;-60
2023/03/24 03:47:59;;;;;;;;;;;20.20;37.50;;;;;;1534694;77;696;-62
2023/03/24 03:50:01;;;;;;;;;;;20.30;37.60;;;;;;1538149;77;638;-59
2023/03/24 03:52:03;;;;;;;;;;;20.30;37.60;;;;;;1544910;77;1112;-60
2023/03/24 03:54:05;;;;;;;;;;;20.30;37.60;;;;;;1545141;77;1332;-59
2023/03/24 03:56:08;;;;;;;;;;;20.30;37.60;;;;;;1541119;77;670;-59
2023/03/24 03:58:09;;;;;;;;;;;20.20;37.50;;;;;;1537876;77;1919;-60
2023/03/24 04:00:14;;;;;;;;;;;20.30;37.60;;;;;;1532303;77;786;-59
2023/03/24 04:02:34;;;;;;;;;;;20.30;37.60;;;;;;1542543;77;1126;-60
2023/03/24 04:04:51;;;;;;;;;;;20.20;37.50;;;;;;1534280;77;749;-59
2023/03/24 04:07:07;;;;;;;;;;;20.20;37.50;;;;;;1539903;77;1814;-60
2023/03/24 04:09:23;;;;;;;;;;;20.20;37.60;;;;;;1533370;77;1601;-59
2023/03/24 04:11:45;;;;;;;;;;;20.20;37.60;;;;;;1533365;77;675;-59
2023/03/24 04:14:03;;;;;;;;;;;20.20;37.60;;;;;;1534434;77;1204;-59
2023/03/24 04:16:10;;;;;;;;;;;20.20;37.70;;;;;;1540917;77;1909;-60
2023/03/24 04:18:14;;;;;;;;;;;20.20;37.70;;;;;;1543823;77;1897;-59
2023/03/24 04:20:17;;;;;;;;;;;20.20;37.70;;;;;;1538372;77;731;-59
2023/03/24 04:22:27;;;;;;;;;;;20.30;37.80;;;;;;1539555;77;1598;-60
2023/03/24 04:24:48;;;;;;;;;;;20.20;37.70;;;;;;1530398;77;802;-59
2023/03/24 04:26:59;;;;;;;;;;;20.20;37.70;;;;;;1530509;77;1602;-59
2023/03/24 04:29:11;;;;;;;;;;;20.20;37.80;;;;;;1533955;77;1818;-59
2023/03/24 04:31:16;;;;;;;;;;;20.20;37.70;;;;;;1544703;77;1627;-60
2023/03/24 04:33:27;;;;;;;;;;;20.20;37.70;;;;;;1542395;77;1155;-60
2023/03/24 04:35:42;;;;;;;;;;;20.20;37.80;;;;;;1536870;77;1575;-61
2023/03/24 04:37:44;;;;;;;;;;;20.20;37.80;;;;;;1537118;77;1908;-62
2023/03/24 04:39:47;;;;;;;;;;;20.20;37.80;;;;;;1533775;77;682;-60
2023/03/24 04:41:49;;;;;;;;;;;20.20;37.80;;;;;;1548908;77;771;-61
2023/03/24 04:43:51;;;;;;;;;;;20.10;37.80;;;;;;1544767;77;1137;-59
2023/03/24 04:45:56;;;;;;;;;;;20.20;37.80;;;;;;1547511;77;819;-59
2023/03/24 04:47:57;;;;;;;;;;;20.20;37.80;;;;;;1532310;77;1643;-61
2023/03/24 04:50:00;;;;;;;;;;;20.10;37.80;;;;;;1537533;77;1566;-59
2023/03/24 04:52:02;;;;;;;;;;;20.20;37.90;;;;;;1535279;77;1100;-59
2023/03/24 04:54:04;;;;;;;;;;;20.20;38.00;;;;;;1536050;77;682;-59
2023/03/24 04:56:14;;;;;;;;;;;20.10;37.90;;;;;;1534609;77;714;-58
2023/03/24 04:58:17;;;;;;;;;;;20.20;37.90;;;;;;1540174;77;1894;-58
2023/03/24 05:00:19;;;;;;;;;;;20.20;37.90;;;;;;1535984;77;736;-59
2023/03/24 05:02:21;;;;;;;;;;;20.20;37.80;;;;;;1537645;77;1131;-59
2023/03/24 05:04:24;;;;;;;;;;;20.20;37.80;;;;;;1531379;77;1489;-60
2023/03/24 05:06:26;;;;;;;;;;;20.20;37.80;;;;;;1541427;77;935;-59
2023/03/24 05:08:28;;;;;;;;;;;20.20;37.80;;;;;;1532039;77;682;-61
2023/03/24 05:10:30;;;;;;;;;;;20.20;37.80;;;;;;1536753;77;822;-59
2023/03/24 05:12:32;;;;;;;;;;;20.20;37.90;;;;;;1536278;77;1157;-60
2023/03/24 05:14:34;;;;;;;;;;;20.20;37.90;;;;;;1547261;77;764;-60
2023/03/24 05:16:36;;;;;;;;;;;20.20;37.80;;;;;;1548661;77;675;-59
2023/03/24 05:18:37;;;;;;;;;;;20.20;37.80;;;;;;1548197;77;1935;-59
2023/03/24 05:20:40;;;;;;;;;;;20.20;37.90;;;;;;1543777;77;675;-59
2023/03/24 05:22:41;;;;;;;;;;;20.20;37.90;;;;;;1536886;77;1142;-59
2023/03/24 05:24:43;;;;;;;;;;;20.20;37.90;;;;;;1535649;77;781;-59
2023/03/24 05:26:45;;;;;;;;;;;20.20;38.00;;;;;;1542971;77;701;-60
2023/03/24 05:28:47;;;;;;;;;;;20.20;38.00;;;;;;1540402;77;654;-61
2023/03/24 05:30:49;;;;;;;;;;;20.20;38.10;;;;;;1540149;77;629;-59
2023/03/24 05:32:51;;;;;;;;;;;20.10;38.10;;;;;;1542754;77;1577;-59
2023/03/24 05:34:53;;;;;;;;;;;20.20;38.20;;;;;;1534381;77;793;-60
2023/03/24 05:36:55;;;;;;;;;;;20.20;38.30;;;;;;1534453;77;822;-60
2023/03/24 05:38:57;;;;;;;;;;;20.10;38.40;;;;;;1526003;77;1918;-59
2023/03/24 05:40:59;;;;;;;;;;;20.10;38.30;;;;;;1536205;77;767;-59
2023/03/24 05:43:01;;;;;;;;;;;20.10;38.30;;;;;;1542922;77;1135;-61
2023/03/24 05:45:03;;;;;;;;;;;20.20;38.30;;;;;;1545827;77;648;-60
2023/03/24 05:47:05;;;;;;;;;;;20.20;38.30;;;;;;1537557;77;1578;-60
2023/03/24 05:49:07;;;;;;;;;;;20.20;38.30;;;;;;1529355;77;798;-60
2023/03/24 05:51:09;;;;;;;;;;;20.20;38.20;;;;;;1544094;77;689;-60
2023/03/24 05:53:11;;;;;;;;;;;20.20;38.20;;;;;;1537199;77;1138;-60
2023/03/24 05:55:14;;;;;;;;;;;20.20;38.20;;;;;;1526142;77;694;-60
2023/03/24 05:57:16;;;;;;;;;;;20.20;38.20;;;;;;1530461;77;1916;-59
2023/03/24 05:59:18;;;;;;;;;;;20.20;38.30;;;;;;1547667;77;623;-60
2023/03/24 06:01:20;;;;;;;;;;;20.20;38.20;;;;;;1531446;77;1343;-60
2023/03/24 06:03:22;;;;;;;;;;;20.20;38.30;;;;;;1539851;77;1161;-59
2023/03/24 06:05:24;;;;;;;;;;;20.20;38.30;;;;;;1547928;77;690;-58
2023/03/24 06:07:29;;;;;;;;;;;20.20;38.30;;;;;;1536590;77;706;-61
2023/03/24 06:09:34;;;;;;;;;;;20.20;38.30;;;;;;1539449;77;1706;-59
2023/03/24 06:11:33;;;;;;;;;;;20.20;38.30;;;;;;1538061;77;1581;-59
2023/03/24 06:13:35;;;;;;;;;;;20.30;38.40;;;;;;1547614;77;1160;-58
2023/03/24 06:15:38;;;;;;;;;;;20.20;38.40;;;;;;1546149;77;1615;-61
2023/03/24 06:17:41;;;;;;;;;;;20.20;38.30;;;;;;1537808;77;1902;-58
2023/03/24 06:19:49;;;;;;;;;;;20.30;38.40;;;;;;1542579;77;664;-60
2023/03/24 06:21:51;;;;;;;;;;;20.30;38.30;;;;;;1547612;77;674;-60
2023/03/24 06:23:55;;;;;;;;;;;20.30;38.30;;;;;;1538328;77;1205;-60
2023/03/24 06:26:00;;;;;;;;;;;20.30;38.30;;;;;;1545649;77;1641;-60
2023/03/24 06:28:02;;;;;;;;;;;20.30;38.30;;;;;;1530160;77;1503;-58
2023/03/24 06:30:04;;;;;;;;;;;20.30;38.40;;;;;;1548156;77;1515;-60
2023/03/24 06:32:05;;;;;;;;;;;20.30;38.40;;;;;;1531809;77;1173;-59
2023/03/24 06:34:07;;;;;;;;;;;20.30;38.30;;;;;;1537261;77;736;-59
2023/03/24 06:36:11;;;;;;;;;;;20.30;38.30;;;;;;1540869;77;787;-61
2023/03/24 06:38:13;;;;;;;;;;;20.20;38.30;;;;;;1534530;77;1896;-59
2023/03/24 06:40:16;;;;;;;;;;;20.20;38.20;;;;;;1532624;77;719;-60
2023/03/24 06:42:18;;;;;;;;;;;20.20;38.30;;;;;;1541951;77;1605;-59
2023/03/24 06:44:20;;;;;;;;;;;20.30;38.40;;;;;;1547358;77;715;-59
2023/03/24 06:46:21;;;;;;;;;;;20.30;38.40;;;;;;1538078;77;759;-59
2023/03/24 06:48:23;;;;;;;;;;;20.30;38.40;;;;;;1538366;77;720;-60
2023/03/24 06:50:31;;;;;;;;;;;20.30;38.40;;;;;;1543960;77;702;-59
2023/03/24 06:52:29;;;;;;;;;;;20.30;38.40;;;;;;1534368;77;1656;-60
2023/03/24 06:54:31;;;;;;;;;;;20.30;38.40;;;;;;1530858;77;675;-59
2023/03/24 06:56:33;;;;;;;;;;;20.30;38.40;;;;;;1536163;77;1372;-59
2023/03/24 06:58:35;;;;;;;;;;;20.20;38.40;;;;;;1543639;77;1900;-61
2023/03/24 07:00:37;;;;;;;;;;;20.30;38.50;;;;;;1546825;77;802;-59
2023/03/24 07:02:39;;;;;;;;;;;20.30;38.50;;;;;;1549265;77;1154;-59
2023/03/24 07:04:41;;;;;;;;;;;20.20;38.40;;;;;;1548312;77;790;-60
2023/03/24 07:06:44;;;;;;;;;;;20.30;38.60;;;;;;1543046;77;832;-60
2023/03/24 07:08:46;;;;;;;;;;;20.20;38.50;;;;;;1546154;77;725;-59
2023/03/24 07:10:48;;;;;;;;;;;20.20;38.40;;;;;;1541481;77;1567;-60
2023/03/24 07:12:50;;;;;;;;;;;20.20;38.50;;;;;;1536090;77;1161;-59
2023/03/24 07:14:52;;;;;;;;;;;20.20;38.40;;;;;;1541762;77;727;-61
2023/03/24 07:16:54;;;;;;;;;;;20.30;38.60;;;;;;1536075;77;741;-59
2023/03/24 07:18:56;;;;;;;;;;;20.20;38.40;;;;;;1548535;77;1898;-60
2023/03/24 07:20:58;;;;;;;;;;;20.20;38.40;;;;;;1547886;77;719;-60
2023/03/24 07:23:00;;;;;;;;;;;20.20;38.50;;;;;;1546149;77;1189;-60
2023/03/24 07:25:03;;;;;;;;;;;20.20;38.50;;;;;;1543378;77;1396;-60
2023/03/24 07:27:05;;;;;;;;;;;20.20;38.50;;;;;;1541556;77;668;-59
2023/03/24 07:29:07;;;;;;;;;;;20.30;38.60;;;;;;1530450;77;802;-60
2023/03/24 07:31:11;;;;;;;;;;;20.20;38.50;;;;;;1532358;77;573;-60
2023/03/24 07:33:12;;;;;;;;;;;20.20;38.40;;;;;;1535316;77;1158;-60
2023/03/24 07:35:15;;;;;;;;;;;20.20;38.50;;;;;;1544954;77;666;-60
2023/03/24 07:37:17;;;;;;;;;;;20.20;38.50;;;;;;1530989;77;622;-59
2023/03/24 07:39:19;;;;;;;;;;;20.30;38.60;;;;;;1534116;77;1935;-60
2023/03/24 07:41:23;;;;;;;;;;;20.30;38.60;;;;;;1535626;77;693;-61
2023/03/24 07:43:25;;;;;;;;;;;20.30;38.60;;;;;;1530904;77;1159;-59
2023/03/24 07:45:27;;;;;;;;;;;20.30;38.50;;;;;;1537904;77;711;-59
2023/03/24 07:47:29;;;;;;;;;;;20.30;38.50;;;;;;1546289;77;653;-60
2023/03/24 07:49:31;;;;;;;;;;;20.30;38.60;;;;;;1530639;77;784;-59
2023/03/24 07:51:33;;;;;;;;;;;20.30;38.60;;;;;;1548410;77;723;-59
2023/03/24 07:53:35;;;;;;;;;;;20.30;38.60;;;;;;1526456;77;1600;-60
2023/03/24 07:55:37;;;;;;;;;;;20.20;38.40;;;;;;1545670;77;802;-59
2023/03/24 07:57:42;;;;;;;;;;;20.30;38.50;;;;;;1529617;77;611;-60
2023/03/24 07:59:44;;;;;;;;;;;20.30;38.60;;;;;;1544808;77;1908;-60
2023/03/24 08:01:48;;;;;;;;;;;20.30;38.50;;;;;;1545209;77;696;-58
2023/03/24 08:03:53;;;;;;;;;;;20.30;38.50;;;;;;1540933;77;1562;-59
2023/03/24 08:05:54;;;;;;;;;;;20.30;38.60;;;;;;1529771;77;744;-59
2023/03/24 08:07:57;;;;;;;;;;;20.30;38.60;;;;;;1548297;77;1655;-59
2023/03/24 08:09:59;;;;;;;;;;;20.30;38.70;;;;;;1542978;77;787;-60
2023/03/24 08:12:01;;;;;;;;;;;20.30;38.70;;;;;;1542134;77;1138;-59
2023/03/24 08:14:03;;;;;;;;;;;20.30;38.70;;;;;;1547549;77;667;-60
2023/03/24 08:16:05;;;;;;;;;;;20.30;38.80;;;;;;1547711;77;806;-60
2023/03/24 08:18:07;;;;;;;;;;;20.20;38.60;;;;;;1543783;77;1944;-60
2023/03/24 08:20:13;;;;;;;;;;;20.30;38.80;;;;;;1548540;77;719;-59
2023/03/24 08:22:13;;;;;;;;;;;20.20;38.60;;;;;;1538135;77;2656;-60
2023/03/24 08:24:16;;;;;;;;;;;20.20;38.70;;;;;;1538424;77;764;-59
2023/03/24 08:26:18;;;;;;;;;;;20.20;38.70;;;;;;1537475;77;798;-59
2023/03/24 08:28:20;;;;;;;;;;;20.20;38.70;;;;;;1541619;77;607;-59
2023/03/24 08:30:22;;;;;;;;;;;20.30;38.90;;;;;;1535233;77;753;-59
2023/03/24 08:32:25;;;;;;;;;;;20.30;38.90;;;;;;1545750;77;1187;-60
2023/03/24 08:34:27;;;;;;;;;;;20.30;38.90;;;;;;1548438;77;698;-60
2023/03/24 08:36:29;;;;;;;;;;;20.20;38.70;;;;;;1541685;77;1610;-59
2023/03/24 08:38:31;;;;;;;;;;;20.20;38.70;;;;;;1534565;77;1918;-60
2023/03/24 08:40:33;;;;;;;;;;;20.30;38.90;;;;;;1532221;77;787;-59
2023/03/24 08:42:35;;;;;;;;;;;20.30;38.90;;;;;;1540183;77;1168;-60
2023/03/24 08:44:37;;;;;;;;;;;20.30;38.90;;;;;;1535312;77;753;-60
2023/03/24 08:46:39;;;;;;;;;;;20.20;38.80;;;;;;1548699;77;713;-61
2023/03/24 08:48:42;;;;;;;;;;;20.20;38.80;;;;;;1534250;77;1602;-60
2023/03/24 08:50:44;;;;;;;;;;;20.30;38.90;;;;;;1547382;77;604;-59
2023/03/24 08:52:47;;;;;;;;;;;20.30;38.90;;;;;;1530649;77;1132;-62
2023/03/24 08:54:49;;;;;;;;;;;20.30;38.90;;;;;;1524908;77;787;-59
2023/03/24 08:56:51;;;;;;;;;;;20.30;38.90;;;;;;1529988;77;800;-60
2023/03/24 08:58:53;;;;;;;;;;;20.30;38.90;;;;;;1542238;77;1930;-59
2023/03/24 09:00:55;;;;;;;;;;;20.30;38.90;;;;;;1532525;77;759;-59
2023/03/24 09:02:57;;;;;;;;;;;20.30;39.00;;;;;;1538956;77;2473;-60
2023/03/24 09:04:59;;;;;;;;;;;20.30;38.90;;;;;;1535543;77;775;-60
2023/03/24 09:07:01;;;;;;;;;;;20.30;39.00;;;;;;1545899;77;729;-61
2023/03/24 09:09:03;;;;;;;;;;;20.30;39.00;;;;;;1548427;77;765;-62
2023/03/24 09:11:05;;;;;;;;;;;20.40;39.00;;;;;;1545068;77;781;-60
2023/03/24 09:13:07;;;;;;;;;;;20.40;38.90;;;;;;1544480;77;1149;-60
2023/03/24 09:15:09;;;;;;;;;;;20.30;38.90;;;;;;1542802;77;684;-60
2023/03/24 09:17:11;;;;;;;;;;;20.30;38.90;;;;;;1544481;77;1572;-61
2023/03/24 09:19:13;;;;;;;;;;;20.40;38.90;;;;;;1536555;77;1927;-59
2023/03/24 09:21:15;;;;;;;;;;;20.40;38.90;;;;;;1547708;77;796;-61
2023/03/24 09:23:17;;;;;;;;;;;20.40;39.00;;;;;;1534991;77;1194;-59
2023/03/24 09:25:19;;;;;;;;;;;20.40;39.00;;;;;;1542963;77;964;-58
2023/03/24 09:27:23;;;;;;;;;;;20.30;38.90;;;;;;1535503;77;797;-60
2023/03/24 09:29:24;;;;;;;;;;;20.40;38.90;;;;;;1542410;77;677;-59
2023/03/24 09:31:26;;;;;;;;;;;20.40;38.90;;;;;;1535405;77;1476;-59
2023/03/24 09:33:29;;;;;;;;;;;20.40;38.90;;;;;;1534394;77;1156;-61
2023/03/24 09:35:31;;;;;;;;;;;20.40;38.80;;;;;;1539301;77;665;-61
2023/03/24 09:37:33;;;;;;;;;;;20.40;38.80;;;;;;1526656;77;735;-62
2023/03/24 09:39:35;;;;;;;;;;;20.40;38.90;;;;;;1535414;77;1948;-60
2023/03/24 09:41:37;;;;;;;;;;;20.40;38.90;;;;;;1535049;77;767;-59
2023/03/24 09:43:40;;;;;;;;;;;20.40;38.80;;;;;;1537549;77;1141;-59
2023/03/24 09:45:44;;;;;;;;;;;20.40;38.90;;;;;;1541364;77;1517;-60
2023/03/24 09:47:47;;;;;;;;;;;20.40;38.90;;;;;;1534168;77;693;-61
2023/03/24 09:49:49;;;;;;;;;;;20.50;38.90;;;;;;1542441;77;789;-58
2023/03/24 09:51:53;;;;;;;;;;;20.40;38.90;;;;;;1539756;77;705;-60
2023/03/24 09:54:06;;;;;;;;;;;20.40;38.90;;;;;;1543501;77;1590;-59
2023/03/24 09:56:12;;;;;;;;;;;20.50;39.10;;;;;;1537672;77;782;-60
2023/03/24 09:58:14;;;;;;;;;;;20.40;38.90;;;;;;1542765;77;1030;-59
2023/03/24 10:00:17;;;;;;;;;;;20.30;39.00;;;;;;1539718;77;1931;-59
2023/03/24 10:02:19;;;;;;;;;;;20.40;38.90;;;;;;1530567;77;1173;-60
2023/03/24 10:04:22;;;;;;;;;;;20.40;38.90;;;;;;1540670;77;735;-61
2023/03/24 10:06:25;;;;;;;;;;;20.40;39.00;;;;;;1542698;77;740;-60
2023/03/24 10:08:28;;;;;;;;;;;20.40;38.90;;;;;;1539938;77;716;-60
2023/03/24 10:10:35;;;;;;;;;;;20.40;39.00;;;;;;1541972;77;683;-60
2023/03/24 10:12:40;;;;;;;;;;;20.40;39.10;;;;;;1546431;77;1768;-59
2023/03/24 10:14:52;;;;;;;;;;;20.40;39.10;;;;;;1538201;77;1533;-59
2023/03/24 10:17:12;;;;;;;;;;;20.40;39.10;;;;;;1536660;77;648;-60
2023/03/24 10:19:21;;;;;;;;;;;20.40;39.10;;;;;;1535006;77;1921;-59
2023/03/24 10:21:26;;;;;;;;;;;20.40;39.10;;;;;;1547587;77;1870;-60
2023/03/24 10:23:30;;;;;;;;;;;20.40;39.20;;;;;;1545556;77;1131;-59
2023/03/24 10:25:33;;;;;;;;;;;20.40;39.20;;;;;;1547845;77;698;-60
2023/03/24 10:27:42;;;;;;;;;;;20.40;39.20;;;;;;1542312;77;1889;-60
2023/03/24 10:29:45;;;;;;;;;;;20.40;39.20;;;;;;1539309;77;1888;-61
2023/03/24 10:31:48;;;;;;;;;;;20.40;39.20;;;;;;1534431;77;742;-59
2023/03/24 10:33:51;;;;;;;;;;;20.40;39.30;;;;;;1536993;77;1082;-59
2023/03/24 10:36:00;;;;;;;;;;;20.40;39.20;;;;;;1541216;77;675;-59
2023/03/24 10:38:04;;;;;;;;;;;20.40;39.30;;;;;;1538221;77;1747;-61
2023/03/24 10:40:16;;;;;;;;;;;20.40;39.20;;;;;;1548532;77;1927;-60
2023/03/24 10:42:20;;;;;;;;;;;20.40;39.30;;;;;;1539041;77;1583;-59
2023/03/24 10:44:22;;;;;;;;;;;20.40;39.20;;;;;;1544789;77;715;-59
2023/03/24 10:46:25;;;;;;;;;;;20.40;39.30;;;;;;1535373;77;795;-60
2023/03/24 10:48:34;;;;;;;;;;;20.50;39.40;;;;;;1543772;77;583;-59
2023/03/24 10:50:37;;;;;;;;;;;20.40;39.20;;;;;;1546868;77;1853;-59
2023/03/24 10:52:42;;;;;;;;;;;20.40;39.30;;;;;;1541845;77;1203;-59
2023/03/24 10:54:46;;;;;;;;;;;20.40;39.30;;;;;;1535166;77;646;-60
2023/03/24 10:56:52;;;;;;;;;;;20.30;39.30;;;;;;1542217;77;1980;-60
2023/03/24 10:58:54;;;;;;;;;;;20.40;39.30;;;;;;1541475;77;716;-60
2023/03/24 11:00:56;;;;;;;;;;;20.40;39.40;;;;;;1539514;77;625;-60
2023/03/24 11:02:59;;;;;;;;;;;20.40;39.40;;;;;;1546058;77;1125;-61
2023/03/24 11:05:02;;;;;;;;;;;20.40;39.40;;;;;;1544286;77;763;-59
2023/03/24 11:07:06;;;;;;;;;;;20.40;39.40;;;;;;1547300;77;744;-60
2023/03/24 11:09:12;;;;;;;;;;;20.40;39.40;;;;;;1535760;77;705;-58
2023/03/24 11:11:15;;;;;;;;;;;20.40;39.40;;;;;;1528110;77;1127;-60
2023/03/24 11:13:18;;;;;;;;;;;20.40;39.50;;;;;;1542590;77;1189;-60
2023/03/24 11:15:21;;;;;;;;;;;20.30;39.50;;;;;;1540017;77;697;-60
2023/03/24 11:17:23;;;;;;;;;;;20.50;39.60;;;;;;1538406;77;1986;-60
2023/03/24 11:19:25;;;;;;;;;;;20.40;39.50;;;;;;1536085;77;1928;-60
2023/03/24 11:21:28;;;;;;;;;;;20.40;39.50;;;;;;1548509;77;751;-58
2023/03/24 11:23:33;;;;;;;;;;;20.50;39.70;;;;;;1537437;77;1345;-59
2023/03/24 11:25:36;;;;;;;;;;;20.50;39.60;;;;;;1520537;78;700;-59
2023/03/24 11:27:43;;;;;;;;;;;20.50;39.70;;;;;;1522743;77;806;-59
2023/03/24 11:29:47;;;;;;;;;;;20.40;39.60;;;;;;1544975;77;701;-60
2023/03/24 11:32:00;;;;;;;;;;;20.50;39.70;;;;;;1542207;77;2115;-59
2023/03/24 11:34:10;;;;;;;;;;;20.50;39.70;;;;;;1546458;77;983;-59
2023/03/24 11:36:34;;;;;;;;;;;20.50;39.70;;;;;;1546162;77;679;-59
2023/03/24 11:38:36;;;;;;;;;;;20.50;39.70;;;;;;1535138;77;1558;-60
2023/03/24 11:40:38;;;;;;;;;;;20.50;39.70;;;;;;1540454;77;1950;-60
2023/03/24 11:42:49;;;;;;;;;;;20.40;39.70;;;;;;1533274;77;1152;-61
2023/03/24 11:44:51;;;;;;;;;;;20.50;39.80;;;;;;1533658;77;1106;-59
2023/03/24 11:46:55;;;;;;;;;;;20.50;39.80;;;;;;1547587;77;795;-60
2023/03/24 11:48:57;;;;;;;;;;;20.40;39.70;;;;;;1535762;77;1585;-59
2023/03/24 11:50:59;;;;;;;;;;;20.50;39.90;;;;;;1548955;77;792;-58
2023/03/24 11:53:19;;;;;;;;;;;20.50;39.80;;;;;;1547114;77;1464;-59
2023/03/24 11:55:27;;;;;;;;;;;20.50;39.80;;;;;;1548930;77;737;-60
2023/03/24 11:57:36;;;;;;;;;;;20.50;39.80;;;;;;1536298;77;1632;-60
2023/03/24 11:59:56;;;;;;;;;;;20.50;39.80;;;;;;1548345;77;1935;-59
2023/03/24 12:02:09;;;;;;;;;;;20.50;39.80;;;;;;1542660;76;1505;-59
2023/03/24 12:04:22;;;;;;;;;;;20.50;39.80;;;;;;1534659;77;776;-60
2023/03/24 12:06:28;;;;;;;;;;;20.50;39.80;;;;;;1537650;77;1909;-59
2023/03/24 12:08:32;;;;;;;;;;;20.30;39.70;;;;;;1522283;77;1666;-60
2023/03/24 12:10:42;;;;;;;;;;;20.50;39.80;;;;;;1535806;77;686;-62
2023/03/24 12:13:02;;;;;;;;;;;20.50;39.80;;;;;;1541445;77;1101;-59
2023/03/24 12:15:14;;;;;;;;;;;20.50;39.70;;;;;;1539913;77;682;-60
2023/03/24 12:17:20;;;;;;;;;;;20.50;39.70;;;;;;1548829;77;1921;-61
2023/03/24 12:19:24;;;;;;;;;;;20.60;39.70;;;;;;1542222;77;1934;-59